Time;durP1;ratioP1;P1;durP2;ratioP2;P2;SDS_P1;SDS_P2;PMS_P1;PMS_P2;Temp;Humidity;BMP_temperature;BMP_pressure;BME280_temperature;BME280_humidity;BME280_pressure;Samples;Min_cycle;Max_cycle;Signal;HPM_P1;HPM_P2
2024/02/28 00:01:52;;;;;;;;;;;4.70;1.00;;;;;;5088826;28;19914;-78
2024/02/28 00:07:34;;;;;;;;;;;4.80;1.00;;;;;;5086149;28;19954;-78
2024/02/28 00:10:00;;;;;;;;;;;4.80;1.00;;;;;;5093743;28;19916;-77
2024/02/28 00:12:57;;;;;;;;;;;4.80;1.00;;;;;;5070145;28;20339;-79
2024/02/28 00:15:39;;;;;;;;;;;4.70;1.00;;;;;;5085747;28;19919;-78
2024/02/28 00:21:19;;;;;;;;;;;4.60;1.00;;;;;;5091027;28;19951;-78
2024/02/28 00:23:57;;;;;;;;;;;4.60;1.00;;;;;;5087223;28;20390;-77
2024/02/28 00:26:57;;;;;;;;;;;4.60;1.00;;;;;;5090068;28;19912;-77
2024/02/28 00:29:57;;;;;;;;;;;4.50;1.00;;;;;;5088636;28;19916;-77
2024/02/28 00:32:57;;;;;;;;;;;4.50;1.00;;;;;;5094858;28;19915;-77
2024/02/28 00:35:39;;;;;;;;;;;4.40;1.00;;;;;;5084106;28;19916;-77
2024/02/28 00:53:20;;;;;;;;;;;4.30;1.00;;;;;;5074630;28;20020;-78
2024/02/28 00:55:46;;;;;;;;;;;4.20;1.00;;;;;;5085999;28;20360;-78
2024/02/28 01:04:39;;;;;;;;;;;4.30;1.00;;;;;;5081477;28;19919;-78
2024/02/28 01:10:07;;;;;;;;;;;4.20;1.00;;;;;;5094147;28;20469;-77
2024/02/28 01:12:57;;;;;;;;;;;4.20;1.00;;;;;;5094233;28;19948;-77
2024/02/28 01:15:59;;;;;;;;;;;4.20;1.00;;;;;;5094340;28;19908;-77
2024/02/28 01:21:27;;;;;;;;;;;4.20;1.00;;;;;;5086648;28;20021;-78
2024/02/28 01:24:15;;;;;;;;;;;4.10;1.00;;;;;;5088515;28;19922;-77
2024/02/28 01:33:15;;;;;;;;;;;4.00;1.00;;;;;;5093972;28;20380;-77
2024/02/28 01:35:51;;;;;;;;;;;3.90;1.00;;;;;;5064837;28;20449;-77
2024/02/28 01:38:21;;;;;;;;;;;3.70;1.00;;;;;;5093856;28;19915;-78
2024/02/28 01:40:57;;;;;;;;;;;3.70;1.00;;;;;;5093184;28;19947;-78
2024/02/28 01:43:27;;;;;;;;;;;3.70;1.00;;;;;;5093662;28;19908;-78
2024/02/28 01:45:53;;;;;;;;;;;3.70;1.00;;;;;;5081131;28;19917;-78
2024/02/28 01:54:25;;;;;;;;;;;3.50;1.00;;;;;;5091403;28;19919;-77
2024/02/28 01:56:57;;;;;;;;;;;3.50;1.00;;;;;;5075720;28;19908;-77
2024/02/28 01:59:57;;;;;;;;;;;3.40;1.00;;;;;;5094200;28;20327;-77
2024/02/28 02:02:57;;;;;;;;;;;3.40;1.00;;;;;;5092301;28;19912;-77
2024/02/28 02:05:57;;;;;;;;;;;3.30;1.00;;;;;;5093904;28;19908;-77
2024/02/28 02:08:27;;;;;;;;;;;3.20;1.00;;;;;;5094213;28;19915;-78
2024/02/28 02:13:56;;;;;;;;;;;3.10;1.00;;;;;;5090339;28;19923;-78
2024/02/28 02:16:57;;;;;;;;;;;3.10;1.00;;;;;;5092555;28;20351;-78
2024/02/28 02:19:57;;;;;;;;;;;3.10;1.00;;;;;;5073727;28;19908;-78
2024/02/28 02:25:27;;;;;;;;;;;3.00;1.00;;;;;;5093227;28;19927;-78
2024/02/28 02:30:57;;;;;;;;;;;3.00;1.00;;;;;;5085507;28;19922;-77
2024/02/28 02:33:57;;;;;;;;;;;3.00;1.00;;;;;;5092794;28;19909;-77
2024/02/28 02:36:27;;;;;;;;;;;3.00;1.00;;;;;;5092733;28;19919;-78
2024/02/28 02:38:57;;;;;;;;;;;3.00;1.00;;;;;;5097047;28;19918;-77
2024/02/28 02:44:57;;;;;;;;;;;2.90;1.00;;;;;;5092220;28;19915;-77
2024/02/28 02:47:57;;;;;;;;;;;2.90;1.00;;;;;;5097007;28;19912;-78
2024/02/28 02:50:57;;;;;;;;;;;2.90;1.00;;;;;;5096663;28;19916;-78
2024/02/28 02:56:27;;;;;;;;;;;2.80;1.00;;;;;;5093776;28;19926;-78
2024/02/28 02:59:27;;;;;;;;;;;2.80;1.00;;;;;;5096628;28;19908;-78
2024/02/28 03:01:57;;;;;;;;;;;2.70;1.00;;;;;;5089259;28;19912;-78
2024/02/28 03:04:33;;;;;;;;;;;2.60;1.00;;;;;;5096469;28;19908;-77
2024/02/28 03:16:28;;;;;;;;;;;2.50;1.00;;;;;;5088881;28;20378;-78
2024/02/28 03:18:57;;;;;;;;;;;2.50;1.00;;;;;;5095837;28;19916;-77
2024/02/28 03:21:27;;;;;;;;;;;2.50;1.00;;;;;;5096169;28;19908;-77
2024/02/28 03:23:57;;;;;;;;;;;2.50;1.00;;;;;;5090740;28;19915;-77
2024/02/28 03:26:57;;;;;;;;;;;2.40;1.00;;;;;;5089051;28;19908;-78
2024/02/28 03:29:57;;;;;;;;;;;2.40;1.00;;;;;;5068610;28;19920;-78
2024/02/28 03:32:27;;;;;;;;;;;2.40;1.00;;;;;;5084999;28;20008;-78
2024/02/28 03:35:27;;;;;;;;;;;2.40;1.00;;;;;;5095910;28;19912;-78
2024/02/28 03:37:57;;;;;;;;;;;2.30;1.00;;;;;;5064424;28;19958;-78
2024/02/28 03:40:57;;;;;;;;;;;2.30;1.00;;;;;;5095772;28;19955;-78
2024/02/28 03:43:57;;;;;;;;;;;2.30;1.00;;;;;;5094674;28;19912;-78
2024/02/28 03:46:33;;;;;;;;;;;2.20;1.00;;;;;;5082449;28;19957;-78
2024/02/28 03:49:27;;;;;;;;;;;2.20;1.00;;;;;;5083756;28;19919;-78
2024/02/28 03:52:28;;;;;;;;;;;2.10;1.00;;;;;;5084882;28;19908;-78
2024/02/28 03:54:57;;;;;;;;;;;2.10;1.00;;;;;;5083028;28;19912;-78
2024/02/28 03:57:57;;;;;;;;;;;2.10;1.00;;;;;;5095424;28;20378;-77
2024/02/28 04:00:57;;;;;;;;;;;2.10;1.00;;;;;;5090584;28;19913;-78
2024/02/28 04:03:27;;;;;;;;;;;2.00;1.00;;;;;;5082907;28;19913;-79
2024/02/28 04:06:27;;;;;;;;;;;2.00;1.00;;;;;;5095583;28;19908;-78
2024/02/28 04:09:03;;;;;;;;;;;2.00;1.00;;;;;;5085077;28;19916;-78
2024/02/28 04:14:32;;;;;;;;;;;1.90;1.00;;;;;;5082751;28;19946;-78
2024/02/28 04:17:27;;;;;;;;;;;1.80;1.00;;;;;;5094946;28;19912;-78
2024/02/28 04:19:57;;;;;;;;;;;1.90;1.00;;;;;;5095058;28;19953;-77
2024/02/28 04:25:51;;;;;;;;;;;1.80;1.00;;;;;;5094863;28;19916;-78
2024/02/28 04:28:17;;;;;;;;;;;1.80;1.00;;;;;;5094622;28;19977;-78
2024/02/28 04:31:03;;;;;;;;;;;1.70;1.00;;;;;;5094949;28;19924;-78
2024/02/28 04:36:57;;;;;;;;;;;1.70;1.00;;;;;;5094049;28;20006;-78
2024/02/28 04:39:27;;;;;;;;;;;1.70;1.00;;;;;;5094592;28;19915;-78
2024/02/28 04:42:27;;;;;;;;;;;1.60;1.00;;;;;;5082290;28;19912;-78
2024/02/28 04:45:27;;;;;;;;;;;1.60;1.00;;;;;;5094817;28;19912;-79
2024/02/28 04:48:27;;;;;;;;;;;1.60;1.00;;;;;;5076377;28;19912;-79
2024/02/28 04:51:15;;;;;;;;;;;1.50;1.00;;;;;;5094344;28;19916;-78
2024/02/28 04:54:15;;;;;;;;;;;1.50;1.00;;;;;;5091110;28;19966;-78
2024/02/28 05:05:57;;;;;;;;;;;1.20;1.00;;;;;;5093831;28;20390;-77
2024/02/28 05:11:58;;;;;;;;;;;1.20;2.10;;;;;;5087083;28;19957;-77
2024/02/28 05:17:27;;;;;;;;;;;1.20;6.60;;;;;;5080540;28;19966;-78
2024/02/28 05:20:03;;;;;;;;;;;1.10;1.00;;;;;;5094303;28;19909;-83
2024/02/28 05:22:45;;;;;;;;;;;1.10;3.60;;;;;;5081370;28;19955;-77
2024/02/28 05:28:51;;;;;;;;;;;1.00;6.70;;;;;;5092115;28;19915;-78
2024/02/28 05:34:57;;;;;;;;;;;1.00;3.90;;;;;;5081739;28;20004;-79
2024/02/28 05:37:27;;;;;;;;;;;0.90;1.00;;;;;;5084498;28;19913;-78
2024/02/28 05:39:58;;;;;;;;;;;0.80;1.00;;;;;;5090481;28;19912;-77
2024/02/28 05:42:28;;;;;;;;;;;0.70;1.20;;;;;;5091322;28;19912;-78
2024/02/28 05:45:21;;;;;;;;;;;0.80;3.10;;;;;;5089467;28;19916;-78
2024/02/28 05:51:27;;;;;;;;;;;0.80;2.60;;;;;;5088529;28;20386;-80
2024/02/28 05:53:57;;;;;;;;;;;0.70;1.00;;;;;;5059303;28;19912;-84
2024/02/28 05:56:27;;;;;;;;;;;0.70;1.00;;;;;;5089696;28;19915;-81
2024/02/28 05:58:57;;;;;;;;;;;0.60;1.40;;;;;;5071603;28;20375;-84
2024/02/28 06:01:23;;;;;;;;;;;0.70;4.70;;;;;;5076543;28;19914;-87
2024/02/28 06:03:49;;;;;;;;;;;0.60;3.80;;;;;;5075694;28;19912;-77
2024/02/28 06:06:15;;;;;;;;;;;0.60;3.30;;;;;;5095464;28;19912;-77
2024/02/28 06:08:57;;;;;;;;;;;0.60;6.50;;;;;;5097117;28;20287;-76
2024/02/28 06:11:24;;;;;;;;;;;0.60;4.30;;;;;;5097252;28;20256;-76
2024/02/28 06:14:04;;;;;;;;;;;0.60;6.70;;;;;;5074548;28;19985;-76
2024/02/28 06:16:30;;;;;;;;;;;0.80;5.00;;;;;;5093887;28;19919;-76
2024/02/28 06:18:57;;;;;;;;;;;0.70;7.60;;;;;;5096894;28;19940;-76
2024/02/28 06:21:28;;;;;;;;;;;0.80;5.20;;;;;;5087280;28;19908;-76
2024/02/28 06:24:21;;;;;;;;;;;0.70;4.60;;;;;;5076913;28;19915;-76
2024/02/28 06:26:57;;;;;;;;;;;0.80;9.40;;;;;;5096727;28;19908;-81
2024/02/28 06:29:57;;;;;;;;;;;0.80;9.50;;;;;;5097100;28;19918;-82
2024/02/28 06:32:57;;;;;;;;;;;0.80;9.80;;;;;;5090704;28;19914;-81
2024/02/28 06:35:57;;;;;;;;;;;0.90;8.90;;;;;;5078268;28;19919;-81
2024/02/28 06:38:34;;;;;;;;;;;1.00;10.30;;;;;;5078624;28;19908;-81
2024/02/28 06:41:27;;;;;;;;;;;1.00;8.30;;;;;;5096861;28;19915;-81
2024/02/28 06:43:57;;;;;;;;;;;1.00;6.90;;;;;;5091112;28;20010;-81
2024/02/28 06:49:27;;;;;;;;;;;1.10;11.00;;;;;;5092277;28;20450;-81
2024/02/28 06:52:27;;;;;;;;;;;1.10;11.60;;;;;;5096136;28;19915;-81
2024/02/28 06:55:27;;;;;;;;;;;1.20;11.10;;;;;;5096597;28;19915;-81
2024/02/28 06:57:57;;;;;;;;;;;1.40;9.90;;;;;;5100306;28;19917;-76
2024/02/28 07:00:27;;;;;;;;;;;1.40;11.00;;;;;;5095917;28;19912;-76
2024/02/28 07:02:57;;;;;;;;;;;1.50;12.70;;;;;;5095930;28;19962;-76
2024/02/28 07:05:24;;;;;;;;;;;1.60;15.10;;;;;;5099118;28;19908;-76
2024/02/28 07:07:57;;;;;;;;;;;1.70;16.20;;;;;;5095918;28;20394;-81
2024/02/28 07:10:27;;;;;;;;;;;1.80;16.50;;;;;;5095526;28;19920;-76
2024/02/28 07:12:57;;;;;;;;;;;1.90;16.20;;;;;;5096314;28;19931;-76
2024/02/28 07:15:27;;;;;;;;;;;2.00;13.10;;;;;;5096370;28;19970;-76
2024/02/28 07:17:57;;;;;;;;;;;2.10;14.00;;;;;;5095585;28;19992;-76
2024/02/28 07:20:27;;;;;;;;;;;2.20;11.30;;;;;;5094730;28;19912;-76
2024/02/28 07:22:57;;;;;;;;;;;2.20;13.40;;;;;;5092826;28;19912;-77
2024/02/28 07:25:51;;;;;;;;;;;2.30;11.80;;;;;;5095580;28;19908;-77
2024/02/28 07:28:27;;;;;;;;;;;2.30;10.40;;;;;;5093118;28;20416;-81
2024/02/28 07:30:57;;;;;;;;;;;2.40;11.40;;;;;;5095384;28;19920;-81
2024/02/28 07:33:27;;;;;;;;;;;2.30;12.40;;;;;;5077003;28;19964;-81
2024/02/28 07:36:00;;;;;;;;;;;2.40;13.70;;;;;;5077400;28;19951;-81
2024/02/28 07:38:29;;;;;;;;;;;2.40;13.50;;;;;;5095257;28;19915;-81
2024/02/28 07:40:57;;;;;;;;;;;2.50;13.50;;;;;;5090281;28;19939;-81
2024/02/28 07:43:28;;;;;;;;;;;2.60;9.50;;;;;;5076919;28;19912;-81
2024/02/28 07:46:27;;;;;;;;;;;2.60;12.30;;;;;;5094547;28;19995;-82
2024/02/28 07:48:57;;;;;;;;;;;2.70;9.50;;;;;;5095581;28;19916;-81
2024/02/28 08:00:57;;;;;;;;;;;2.80;12.50;;;;;;5095225;28;19958;-82
2024/02/28 08:03:27;;;;;;;;;;;2.90;11.90;;;;;;5095336;28;19965;-81
2024/02/28 08:05:57;;;;;;;;;;;3.00;6.20;;;;;;5111322;28;19908;-81
2024/02/28 08:08:39;;;;;;;;;;;3.00;8.60;;;;;;5095463;28;19954;-82
2024/02/28 08:11:21;;;;;;;;;;;3.10;5.70;;;;;;5077401;28;19916;-82
2024/02/28 08:13:47;;;;;;;;;;;3.10;7.90;;;;;;5094606;28;20336;-77
2024/02/28 08:16:13;;;;;;;;;;;3.20;7.80;;;;;;5084325;28;19916;-76
2024/02/28 08:18:39;;;;;;;;;;;3.30;7.40;;;;;;5086021;28;19924;-76
2024/02/28 08:21:07;;;;;;;;;;;3.40;3.60;;;;;;5093249;28;19961;-76
2024/02/28 08:23:32;;;;;;;;;;;3.50;4.60;;;;;;5091436;28;19919;-76
2024/02/28 08:26:10;;;;;;;;;;;3.60;3.10;;;;;;5091602;28;19912;-77
2024/02/28 08:28:51;;;;;;;;;;;3.60;2.60;;;;;;5097206;28;19961;-81
2024/02/28 08:31:17;;;;;;;;;;;3.80;1.00;;;;;;5094538;28;19915;-81
2024/02/28 08:33:57;;;;;;;;;;;4.00;1.00;;;;;;5094478;28;19912;-81
2024/02/28 08:36:27;;;;;;;;;;;4.00;1.00;;;;;;5093428;28;19916;-80
2024/02/28 08:38:57;;;;;;;;;;;4.20;1.00;;;;;;5094466;28;19915;-81
2024/02/28 08:41:57;;;;;;;;;;;4.40;1.00;;;;;;5093945;28;20734;-81
2024/02/28 08:44:27;;;;;;;;;;;4.50;1.00;;;;;;5085580;28;19912;-80
2024/02/28 08:46:57;;;;;;;;;;;4.60;1.00;;;;;;5090511;28;19916;-81
2024/02/28 08:49:27;;;;;;;;;;;4.60;1.00;;;;;;5068788;28;19920;-81
2024/02/28 08:51:57;;;;;;;;;;;4.70;1.00;;;;;;5098501;28;19908;-81
2024/02/28 08:54:27;;;;;;;;;;;4.70;1.00;;;;;;5094176;28;19957;-81
2024/02/28 08:56:57;;;;;;;;;;;4.80;1.00;;;;;;5076179;28;19909;-81
2024/02/28 08:59:27;;;;;;;;;;;4.80;1.00;;;;;;5076410;28;19915;-76
2024/02/28 09:01:57;;;;;;;;;;;4.90;1.00;;;;;;5096769;28;19999;-76
2024/02/28 09:04:28;;;;;;;;;;;5.00;1.00;;;;;;5093687;28;19915;-76
2024/02/28 09:06:57;;;;;;;;;;;5.10;1.00;;;;;;5089673;28;20287;-76
2024/02/28 09:09:33;;;;;;;;;;;5.30;1.00;;;;;;5090870;28;19920;-76
2024/02/28 09:12:21;;;;;;;;;;;5.40;1.00;;;;;;5094053;28;20027;-76
2024/02/28 09:14:58;;;;;;;;;;;5.40;1.00;;;;;;5094050;28;19958;-76
2024/02/28 09:17:24;;;;;;;;;;;5.40;1.00;;;;;;5098461;28;19922;-73
2024/02/28 09:19:50;;;;;;;;;;;5.30;1.00;;;;;;5093570;28;19913;-76
2024/02/28 09:22:17;;;;;;;;;;;5.30;1.00;;;;;;5092984;28;19920;-74
2024/02/28 09:24:45;;;;;;;;;;;5.30;1.00;;;;;;5093908;28;19916;-74
2024/02/28 09:27:27;;;;;;;;;;;5.40;1.00;;;;;;5093345;28;19934;-76
2024/02/28 09:29:57;;;;;;;;;;;5.40;1.00;;;;;;5094067;28;19999;-78
2024/02/28 09:32:57;;;;;;;;;;;5.40;1.00;;;;;;5096143;28;19940;-84
2024/02/28 09:35:27;;;;;;;;;;;5.40;1.00;;;;;;5091771;28;19951;-81
2024/02/28 09:37:57;;;;;;;;;;;5.50;1.00;;;;;;5090769;28;19912;-83
2024/02/28 09:40:27;;;;;;;;;;;5.60;1.00;;;;;;5083243;28;19957;-84
2024/02/28 09:43:00;;;;;;;;;;;5.60;1.00;;;;;;5082860;28;20327;-81
2024/02/28 09:45:26;;;;;;;;;;;5.70;1.00;;;;;;5097747;28;19924;-80
2024/02/28 09:47:58;;;;;;;;;;;5.70;1.00;;;;;;5079341;28;19962;-81
2024/02/28 09:50:27;;;;;;;;;;;5.70;1.00;;;;;;5079109;28;20014;-81
2024/02/28 09:53:27;;;;;;;;;;;5.80;1.00;;;;;;5098136;28;19912;-81
2024/02/28 09:55:58;;;;;;;;;;;5.70;1.00;;;;;;5098382;28;19908;-87
2024/02/28 10:01:27;;;;;;;;;;;6.00;1.00;;;;;;5079153;28;19962;-85
2024/02/28 10:04:27;;;;;;;;;;;6.00;1.00;;;;;;5090228;28;20366;-78
2024/02/28 10:06:57;;;;;;;;;;;6.10;1.00;;;;;;5078127;28;19915;-86
2024/02/28 10:09:27;;;;;;;;;;;6.10;1.00;;;;;;5086876;28;19916;-87
2024/02/28 10:14:59;;;;;;;;;;;6.00;1.00;;;;;;5078313;28;19916;-88
2024/02/28 10:17:25;;;;;;;;;;;6.20;1.00;;;;;;5077794;28;19927;-88
2024/02/28 10:20:27;;;;;;;;;;;6.30;1.00;;;;;;5076249;28;19920;-88
2024/02/28 10:22:57;;;;;;;;;;;6.40;1.00;;;;;;5096667;28;19959;-89
2024/02/28 10:25:23;;;;;;;;;;;6.40;1.00;;;;;;5076684;28;19912;-88
2024/02/28 10:27:51;;;;;;;;;;;6.40;1.00;;;;;;5071118;28;19920;-89
2024/02/28 10:33:20;;;;;;;;;;;6.60;1.00;;;;;;5096083;28;19934;-89
2024/02/28 10:35:51;;;;;;;;;;;6.70;1.00;;;;;;5078052;28;19994;-91
2024/02/28 10:38:27;;;;;;;;;;;6.80;1.00;;;;;;5078440;28;19912;-88
2024/02/28 10:40:58;;;;;;;;;;;6.90;1.00;;;;;;5089018;28;19961;-88
2024/02/28 10:43:29;;;;;;;;;;;6.90;1.00;;;;;;5079007;28;20374;-89
2024/02/28 10:45:58;;;;;;;;;;;6.90;1.00;;;;;;5079317;28;19923;-88
2024/02/28 10:48:28;;;;;;;;;;;6.90;1.00;;;;;;5081485;28;19912;-79
2024/02/28 10:54:27;;;;;;;;;;;7.00;1.00;;;;;;5094132;28;19919;-80
2024/02/28 10:57:04;;;;;;;;;;;7.00;1.00;;;;;;5078625;28;19957;-79
2024/02/28 10:59:32;;;;;;;;;;;7.20;1.00;;;;;;5095522;28;19965;-79
2024/02/28 11:01:58;;;;;;;;;;;7.20;1.00;;;;;;5096326;28;20407;-82
2024/02/28 11:04:27;;;;;;;;;;;7.20;1.00;;;;;;5077559;28;19943;-82
2024/02/28 11:07:27;;;;;;;;;;;7.30;1.00;;;;;;5095127;28;19952;-82
2024/02/28 11:09:57;;;;;;;;;;;7.40;1.00;;;;;;5078407;28;19920;-84
2024/02/28 11:12:28;;;;;;;;;;;7.40;1.00;;;;;;5096655;28;19920;-83
2024/02/28 11:15:15;;;;;;;;;;;7.50;1.00;;;;;;5087868;28;19912;-79
2024/02/28 11:18:18;;;;;;;;;;;7.60;1.00;;;;;;5095368;28;19981;-77
2024/02/28 11:20:57;;;;;;;;;;;7.70;1.00;;;;;;5033211;28;20284;-77
2024/02/28 11:23:39;;;;;;;;;;;7.80;1.00;;;;;;5028135;28;19913;-77
2024/02/28 11:26:05;;;;;;;;;;;7.80;1.00;;;;;;5032564;28;19944;-77
2024/02/28 11:28:51;;;;;;;;;;;7.90;1.00;;;;;;5033851;28;19944;-78
2024/02/28 11:31:27;;;;;;;;;;;7.90;1.00;;;;;;5034024;28;19913;-78
2024/02/28 11:33:53;;;;;;;;;;;7.90;1.00;;;;;;5033616;28;19910;-77
2024/02/28 11:36:28;;;;;;;;;;;7.90;1.00;;;;;;5033786;28;19920;-77
2024/02/28 11:38:58;;;;;;;;;;;7.90;1.00;;;;;;5033488;28;19909;-77
2024/02/28 11:41:46;;;;;;;;;;;7.90;1.00;;;;;;5033809;28;19976;-78
2024/02/28 11:44:27;;;;;;;;;;;8.00;1.00;;;;;;5014138;28;19914;-77
2024/02/28 11:46:57;;;;;;;;;;;8.00;1.00;;;;;;5029489;28;20082;-77
2024/02/28 11:49:27;;;;;;;;;;;8.10;1.00;;;;;;5033438;28;19920;-77
2024/02/28 11:51:57;;;;;;;;;;;8.30;1.00;;;;;;5033481;28;19909;-77
2024/02/28 11:54:27;;;;;;;;;;;8.30;1.00;;;;;;5056286;28;19915;-77
2024/02/28 11:56:58;;;;;;;;;;;8.40;1.00;;;;;;5095772;28;19995;-77
2024/02/28 11:59:27;;;;;;;;;;;8.50;1.00;;;;;;5089278;28;20022;-76
2024/02/28 12:01:57;;;;;;;;;;;8.50;1.00;;;;;;5094674;28;19912;-78
2024/02/28 12:04:27;;;;;;;;;;;8.60;1.00;;;;;;5094361;28;19961;-77
2024/02/28 12:06:57;;;;;;;;;;;8.60;1.00;;;;;;5077340;28;20283;-77
2024/02/28 12:09:29;;;;;;;;;;;8.60;1.00;;;;;;5095221;28;20007;-77
2024/02/28 12:12:00;;;;;;;;;;;8.70;1.00;;;;;;5095342;28;19912;-77
2024/02/28 12:14:27;;;;;;;;;;;8.70;1.00;;;;;;5092143;28;19999;-77
2024/02/28 12:16:57;;;;;;;;;;;8.70;1.00;;;;;;5085226;28;19919;-77
2024/02/28 12:19:23;;;;;;;;;;;8.70;1.00;;;;;;5095219;28;19965;-77
2024/02/28 12:21:49;;;;;;;;;;;8.80;1.00;;;;;;5095589;28;19912;-77
2024/02/28 12:24:28;;;;;;;;;;;8.90;1.00;;;;;;5106859;27;19938;-77
2024/02/28 12:26:53;;;;;;;;;;;9.00;1.00;;;;;;5091626;28;19918;-77
2024/02/28 12:29:27;;;;;;;;;;;9.10;1.00;;;;;;5091432;28;19913;-77
2024/02/28 12:31:57;;;;;;;;;;;9.20;1.00;;;;;;5091540;28;19908;-77
2024/02/28 12:34:33;;;;;;;;;;;9.30;1.00;;;;;;5083296;28;19908;-77
2024/02/28 12:37:15;;;;;;;;;;;9.30;1.00;;;;;;5091371;28;19912;-77
2024/02/28 12:39:57;;;;;;;;;;;9.40;1.00;;;;;;5099539;28;19958;-77
2024/02/28 12:42:39;;;;;;;;;;;9.40;1.00;;;;;;5090423;28;19959;-79
2024/02/28 12:45:10;;;;;;;;;;;9.60;1.00;;;;;;5091388;28;19956;-77
2024/02/28 12:47:46;;;;;;;;;;;9.70;1.00;;;;;;5087122;28;20046;-77
2024/02/28 12:50:15;;;;;;;;;;;9.80;1.00;;;;;;5090954;28;20007;-77
2024/02/28 12:52:53;;;;;;;;;;;9.90;1.00;;;;;;5089910;28;19957;-76
2024/02/28 12:55:28;;;;;;;;;;;10.00;1.00;;;;;;5089598;28;20386;-76
2024/02/28 12:58:10;;;;;;;;;;;10.00;1.00;;;;;;5077768;28;19920;-78
2024/02/28 13:00:57;;;;;;;;;;;10.10;1.00;;;;;;5091186;28;19908;-77
2024/02/28 13:03:29;;;;;;;;;;;10.30;1.00;;;;;;5085390;28;19921;-76
2024/02/28 13:05:57;;;;;;;;;;;10.20;1.00;;;;;;5090847;28;19916;-76
2024/02/28 13:08:33;;;;;;;;;;;10.20;1.00;;;;;;5090718;28;19915;-77
2024/02/28 13:11:03;;;;;;;;;;;10.30;1.00;;;;;;5086302;28;19915;-76
2024/02/28 13:13:29;;;;;;;;;;;10.30;1.00;;;;;;5082830;28;19920;-77
2024/02/28 13:15:57;;;;;;;;;;;10.50;1.00;;;;;;5091009;28;19912;-77
2024/02/28 13:18:28;;;;;;;;;;;10.40;1.00;;;;;;5090543;28;19912;-77
2024/02/28 13:21:04;;;;;;;;;;;10.60;1.00;;;;;;5090465;28;20003;-77
2024/02/28 13:23:40;;;;;;;;;;;10.60;1.00;;;;;;5093939;28;19926;-76
2024/02/28 13:26:17;;;;;;;;;;;10.80;1.00;;;;;;5080153;28;19954;-78
2024/02/28 13:28:46;;;;;;;;;;;10.90;1.00;;;;;;5084455;28;19981;-76
2024/02/28 13:31:12;;;;;;;;;;;10.90;1.00;;;;;;5081665;28;19916;-76
2024/02/28 13:33:38;;;;;;;;;;;11.00;1.00;;;;;;5088639;28;19912;-76
2024/02/28 13:39:06;;;;;;;;;;;11.20;1.00;;;;;;5066475;28;19946;-77
2024/02/28 13:41:39;;;;;;;;;;;11.30;1.00;;;;;;5076282;28;19912;-78
2024/02/28 13:44:05;;;;;;;;;;;11.40;1.00;;;;;;5075325;28;19920;-77
2024/02/28 13:46:33;;;;;;;;;;;11.40;1.00;;;;;;5090424;28;19912;-75
2024/02/28 13:48:59;;;;;;;;;;;11.50;1.00;;;;;;5077000;28;19913;-77
2024/02/28 13:51:28;;;;;;;;;;;11.40;1.00;;;;;;5092264;28;19913;-77
2024/02/28 13:53:57;;;;;;;;;;;11.50;1.00;;;;;;5080601;28;19920;-77
2024/02/28 13:56:34;;;;;;;;;;;11.40;1.00;;;;;;5069219;28;19913;-78
2024/02/28 13:59:03;;;;;;;;;;;11.40;1.00;;;;;;5089060;28;19909;-78
2024/02/28 14:01:33;;;;;;;;;;;11.60;1.00;;;;;;5073616;28;19944;-75
2024/02/28 14:03:59;;;;;;;;;;;11.60;1.00;;;;;;5076392;28;19912;-75
2024/02/28 14:06:25;;;;;;;;;;;11.70;1.00;;;;;;5082629;28;19913;-74
2024/02/28 14:08:58;;;;;;;;;;;11.80;1.00;;;;;;5075877;28;19908;-78
2024/02/28 14:11:28;;;;;;;;;;;11.90;1.00;;;;;;5080127;28;19991;-77
2024/02/28 14:13:58;;;;;;;;;;;12.00;1.00;;;;;;5075971;28;20363;-78
2024/02/28 14:16:24;;;;;;;;;;;12.10;1.00;;;;;;5070034;28;19913;-75
2024/02/28 14:18:52;;;;;;;;;;;12.10;1.00;;;;;;5075799;28;19919;-76
2024/02/28 14:21:30;;;;;;;;;;;12.20;1.00;;;;;;5065898;28;20279;-75
2024/02/28 14:23:56;;;;;;;;;;;12.30;1.00;;;;;;5074881;28;19920;-75
2024/02/28 14:26:24;;;;;;;;;;;12.30;1.00;;;;;;5068567;28;19919;-75
2024/02/28 14:28:49;;;;;;;;;;;12.30;1.00;;;;;;5074241;28;19915;-74
2024/02/28 14:31:15;;;;;;;;;;;12.20;1.00;;;;;;5067892;28;19909;-75
2024/02/28 14:33:58;;;;;;;;;;;12.20;1.00;;;;;;5062669;28;19936;-77
2024/02/28 14:36:28;;;;;;;;;;;12.00;1.00;;;;;;5080261;28;19913;-77
2024/02/28 14:38:54;;;;;;;;;;;12.10;1.00;;;;;;5071061;28;19916;-77
2024/02/28 14:41:20;;;;;;;;;;;12.10;1.00;;;;;;5066599;28;19909;-75
2024/02/28 14:43:46;;;;;;;;;;;12.30;1.00;;;;;;5075274;28;19952;-76
2024/02/28 14:46:12;;;;;;;;;;;12.30;1.00;;;;;;5079316;28;19998;-76
2024/02/28 14:49:03;;;;;;;;;;;12.50;1.00;;;;;;5083640;28;19909;-76
2024/02/28 14:51:34;;;;;;;;;;;12.50;1.00;;;;;;5082736;28;19918;-77
2024/02/28 14:54:00;;;;;;;;;;;12.70;1.00;;;;;;5075601;28;20352;-77
2024/02/28 14:56:27;;;;;;;;;;;12.70;1.00;;;;;;5081905;28;19912;-77
2024/02/28 14:58:56;;;;;;;;;;;12.60;1.00;;;;;;5075453;28;20360;-77
2024/02/28 15:01:28;;;;;;;;;;;12.50;1.00;;;;;;5073583;28;19913;-77
2024/02/28 15:03:58;;;;;;;;;;;12.50;1.00;;;;;;5073299;28;20351;-76
2024/02/28 15:06:27;;;;;;;;;;;12.50;1.00;;;;;;5074893;28;20249;-76
2024/02/28 15:08:53;;;;;;;;;;;12.50;1.00;;;;;;5074517;28;19908;-76
2024/02/28 15:11:19;;;;;;;;;;;12.60;1.00;;;;;;5074340;28;19974;-76
2024/02/28 15:13:45;;;;;;;;;;;12.60;1.00;;;;;;5063648;28;19920;-76
2024/02/28 15:16:11;;;;;;;;;;;12.70;1.00;;;;;;5072912;28;20041;-76
2024/02/28 15:18:37;;;;;;;;;;;12.60;1.00;;;;;;5074372;28;19931;-76
2024/02/28 15:21:02;;;;;;;;;;;12.60;1.00;;;;;;5070645;28;20383;-76
2024/02/28 15:23:28;;;;;;;;;;;12.70;1.00;;;;;;5073250;28;19920;-77
2024/02/28 15:25:57;;;;;;;;;;;12.70;1.00;;;;;;5062246;28;20405;-76
2024/02/28 15:28:39;;;;;;;;;;;12.80;1.00;;;;;;5074854;28;19915;-76
2024/02/28 15:31:16;;;;;;;;;;;12.70;1.00;;;;;;5074607;28;19913;-76
2024/02/28 15:33:52;;;;;;;;;;;12.70;1.00;;;;;;5075168;28;19948;-76
2024/02/28 15:36:17;;;;;;;;;;;12.60;1.00;;;;;;5071328;28;19919;-75
2024/02/28 15:38:43;;;;;;;;;;;12.70;1.00;;;;;;5071776;28;19913;-76
2024/02/28 15:41:09;;;;;;;;;;;12.70;1.00;;;;;;5074389;28;19912;-76
2024/02/28 15:43:52;;;;;;;;;;;12.60;1.00;;;;;;5072298;28;19989;-76
2024/02/28 15:46:28;;;;;;;;;;;12.60;1.00;;;;;;5059243;28;19919;-76
2024/02/28 15:48:54;;;;;;;;;;;12.60;1.00;;;;;;5073936;28;19922;-77
2024/02/28 15:51:22;;;;;;;;;;;12.60;1.00;;;;;;5074589;28;19908;-77
2024/02/28 15:53:59;;;;;;;;;;;12.60;1.00;;;;;;5074099;28;20414;-76
2024/02/28 15:56:40;;;;;;;;;;;12.70;1.00;;;;;;5089154;28;19923;-76
2024/02/28 15:59:39;;;;;;;;;;;12.90;1.00;;;;;;5084993;28;19908;-76
2024/02/28 16:02:22;;;;;;;;;;;13.20;1.00;;;;;;5064442;28;19999;-76
2024/02/28 16:04:51;;;;;;;;;;;13.30;1.00;;;;;;5083057;28;19912;-75
2024/02/28 16:07:28;;;;;;;;;;;13.30;1.00;;;;;;5079359;28;19908;-77
2024/02/28 16:10:28;;;;;;;;;;;13.10;1.00;;;;;;5072973;28;20340;-76
2024/02/28 16:12:53;;;;;;;;;;;13.10;1.00;;;;;;5073736;28;20344;-77
2024/02/28 16:15:28;;;;;;;;;;;12.80;1.00;;;;;;5073945;28;19908;-77
2024/02/28 16:18:04;;;;;;;;;;;12.80;1.00;;;;;;5082326;28;19916;-75
2024/02/28 16:20:43;;;;;;;;;;;12.60;1.00;;;;;;5108081;27;19912;-76
2024/02/28 16:23:08;;;;;;;;;;;12.40;1.00;;;;;;5072656;28;20331;-76
2024/02/28 16:25:46;;;;;;;;;;;12.30;1.00;;;;;;5064506;28;19963;-77
2024/02/28 16:28:22;;;;;;;;;;;12.00;1.00;;;;;;5054051;28;19909;-77
2024/02/28 16:30:59;;;;;;;;;;;11.90;1.00;;;;;;5098616;28;19920;-76
2024/02/28 16:33:25;;;;;;;;;;;11.50;1.00;;;;;;5056182;28;19963;-75
2024/02/28 16:35:52;;;;;;;;;;;11.30;1.00;;;;;;5073716;28;19908;-76
2024/02/28 16:38:22;;;;;;;;;;;11.20;1.00;;;;;;5060653;28;19927;-77
2024/02/28 16:40:47;;;;;;;;;;;11.00;1.00;;;;;;5086566;28;19919;-75
2024/02/28 16:43:13;;;;;;;;;;;10.80;1.00;;;;;;5094172;28;19912;-75
2024/02/28 16:45:39;;;;;;;;;;;10.60;1.00;;;;;;5074964;28;20007;-75
2024/02/28 16:48:40;;;;;;;;;;;10.40;1.00;;;;;;5073747;28;19917;-76
2024/02/28 16:51:10;;;;;;;;;;;10.30;1.00;;;;;;5076553;28;20366;-75
2024/02/28 16:53:40;;;;;;;;;;;10.00;1.00;;;;;;5088561;28;20007;-74
2024/02/28 16:56:05;;;;;;;;;;;9.70;1.00;;;;;;5085333;28;19918;-74
2024/02/28 16:58:36;;;;;;;;;;;9.70;1.00;;;;;;5072079;28;19909;-74
2024/02/28 17:01:10;;;;;;;;;;;9.50;1.00;;;;;;5079678;28;19912;-74
2024/02/28 17:03:35;;;;;;;;;;;9.30;1.00;;;;;;5085656;28;19939;-74
2024/02/28 17:06:04;;;;;;;;;;;9.20;1.00;;;;;;5081510;28;21300;-74
2024/02/28 17:09:04;;;;;;;;;;;9.00;1.00;;;;;;5076214;28;19936;-75
2024/02/28 17:11:40;;;;;;;;;;;8.90;1.00;;;;;;5078870;28;19908;-75
2024/02/28 17:14:05;;;;;;;;;;;8.70;1.00;;;;;;5076403;28;19991;-75
2024/02/28 17:16:40;;;;;;;;;;;8.60;1.00;;;;;;5078327;28;19948;-75
2024/02/28 17:19:10;;;;;;;;;;;8.40;1.00;;;;;;5079913;28;19919;-75
2024/02/28 17:21:40;;;;;;;;;;;8.30;1.00;;;;;;5082064;28;19912;-76
2024/02/28 17:24:06;;;;;;;;;;;8.20;1.00;;;;;;5072006;28;20011;-77
2024/02/28 17:26:31;;;;;;;;;;;8.00;1.00;;;;;;5076745;28;19982;-77
2024/02/28 17:28:58;;;;;;;;;;;7.90;1.00;;;;;;5076674;28;19931;-76
2024/02/28 17:31:28;;;;;;;;;;;7.80;1.00;;;;;;5068976;28;19920;-76
2024/02/28 17:34:04;;;;;;;;;;;7.70;1.00;;;;;;5060490;28;19920;-76
2024/02/28 17:36:34;;;;;;;;;;;7.60;1.00;;;;;;5059939;28;19925;-75
2024/02/28 17:39:17;;;;;;;;;;;7.50;1.00;;;;;;5061222;28;19913;-76
2024/02/28 17:41:47;;;;;;;;;;;7.50;1.00;;;;;;5054655;28;19928;-75